Tiempo atmosférico en la estación meteorológica de Bardenas Reales, Base Aérea, Navarra (295 m.)

Fecha
DESCASC
Temp. máxima en grados centígrados (hora)
DESCASC
Temp. mínima en grados centígrados (hora)
DESCASC
Temp. media en grados centígrados
DESCASC
Racha de viento máxima en m/sg (hora)
DESCASC
Velocidad máxima media en intervalos de 10 minutos(hora)
DESCASC
Precipitaciones diarias en mm
DESCASC
Precipitaciones de 00:00 a 06:00 en mm
DESCASC
Precipitaciones de 06:00 a 12:00 en mm
DESCASC
Precipitaciones de 12:00 a 18:00 en mm
DESCASC
Precipitaciones de 18:00 a 24:00 en mm
DESCASC
17-08-2017 36.1 (19:40) 15.5 (07:10) 25.8 6.39 (17:40) 3.89 (04:30) 0 0 0 0 0
16-08-2017 32.2 (17:30) 18.2 (07:40) 25.2 12.78 (19:00) 9.17 (19:00) 0 0 0 0 0
15-08-2017 33.5 (16:40) 18.7 (00:00) 26.1 10.28 (14:40) 7.22 (11:50) 0 0 0 0 0
14-08-2017 35.4 (16:40) 18.6 (07:30) 27 14.72 (22:10) 10.83 (17:40) 0.4 0 0 0 0.4
13-08-2017 32.9 (18:20) 14.5 (00:00) 23.7 7.5 (01:00) 5.28 (01:00) 0 0 0 0 0
12-08-2017 30.8 (18:40) 12 (00:00) 21.4 13.06 (01:20) 9.72 (00:30) 0 0 0 0 0
11-08-2017 24 (17:30) 12.7 (00:00) 18.3 15.56 (16:20) 10.83 (18:10) 0 0 0 0 0
10-08-2017 22.5 (17:40) 12.8 (00:00) 17.7 15.83 (16:20) 10.83 (17:00) 0 0 0 0 0
09-08-2017 21.9 (15:00) 13.2 (00:00) 17.5 17.78 (19:20) 12.78 (15:50) 0 0 0 0 0
08-08-2017 24.9 (15:50) 16 (00:00) 20.4 17.5 (03:20) 11.67 (03:20) 0 0 0 0 0
07-08-2017 34.9 (17:00) 18.8 (00:00) 26.9 15.28 (18:40) 11.11 (18:20) 0 0 0 0 0
06-08-2017 29.3 (18:30) 16.2 (00:00) 22.8 16.67 (00:30) 11.94 (02:40) 0 0 0 0 0
05-08-2017 30.8 (15:10) 16.4 (00:00) 23.6 18.89 (19:20) 13.33 (18:50) 1.4 0 0 0 1.4
04-08-2017 36 (17:00) 20.2 (00:00) 28.1 11.11 (14:00) 8.33 (20:30) 0 0 0 0 0
03-08-2017 39.6 (18:20) 20 (00:00) 29.8 11.11 (01:30) 8.33 (02:00) 0 0 0 0 0
02-08-2017 37.1 (19:20) 18.2 (00:00) 27.6 15.28 (19:50) 11.39 (19:40) 0 0 0 0 0
01-08-2017 33.8 (17:30) 18.5 (00:00) 26.1 11.11 (00:10) 7.78 (20:10) 0 0 0 0 0
31-07-2017 37.6 (18:40) 18.1 (00:00) 27.8 12.78 (01:50) 10 (01:50) 0 0 0 0 0
30-07-2017 39.3 (17:20) 20.8 (00:00) 30 12.22 (23:10) 8.61 (23:20) 0 0 0 0 0
29-07-2017 38.5 (19:20) 17.9 (00:00) 28.2 10.28 (13:20) 6.39 (14:10) 0 0 0 0 0
28-07-2017 36.4 (16:40) 19.5 (00:00) 28 10.28 (14:20) 7.22 (20:30) 0 0 0 0 0
27-07-2017 35.2 (17:10) 15.8 (00:00) 25.5 10.83 (20:40) 8.06 (20:40) 0 0 0 0 0
26-07-2017 30.1 (18:30) 15.2 (00:00) 22.7 15.28 (00:10) 11.94 (00:10) 0 0 0 0 0
25-07-2017 24 (16:10) 16.5 (00:00) 20.3 18.33 (16:40) 14.17 (17:50) 0 0 0 0 0
24-07-2017 26.3 (14:30) 17.8 (00:00) 22 17.22 (15:10) 12.78 (18:20) 0 0 0 0 0
23-07-2017 31.2 (16:30) 16.3 (00:00) 23.8 13.89 (19:30) 10.28 (19:40) 0 0 0 0 0
22-07-2017 34.4 (18:50) 17.3 (00:00) 25.9 10.83 (21:40) 8.61 (21:30) 0 0 0 0 0
21-07-2017 31.9 (16:20) 16.8 (00:00) 24.3 10 (02:40) 7.22 (02:00) 0 0 0 0 0
20-07-2017 29.3 (16:40) 17.7 (00:00) 23.5 15.28 (21:00) 11.67 (21:00) 0 0 0 0 0
19-07-2017 37.6 (18:20) 21.4 (00:00) 29.5 16.94 (01:00) 11.67 (00:50) 0 0 0 0 0

Gráficas

Temp. máximas Temp. mínimas Temp. medias Precipitaciones Rachas de viento máximas Velocidades máximas media en intervalos de 10 minutos

Datos horarios

Fecha y hora oficial Temperatura (ºC) Velocidad del viento (km/h) Dirección del viento Racha (km/h) Dirección de racha Precipitación (mm) Presión (hPa) Tendencia (hPa) Humedad (%)
2017-08-17 23:00:00 27.7 7 Sudoeste 11 Oeste 0 981.8 1 39
2017-08-17 22:00:00 29.7 8 Norte 17 Noroeste 0 981.4 0.5 32
2017-08-17 21:00:00 32.4 13 Noroeste 19 Noroeste 0 981 -0.3 28
2017-08-17 20:00:00 35.5 5 Sur 12 Sudoeste 0 980.8 -1 19
2017-08-17 19:00:00 35.4 9 Sur 20 Este 0 980.9 -1.6 19
2017-08-17 18:00:00 35.5 8 Este 23 Este 0 981.3 -2.2 19
2017-08-17 17:00:00 35.3 8 Sudeste 20 Este 0 981.8 -2.7 18
2017-08-17 16:00:00 34.6 6 Oeste 14 Oeste 0 982.5 -2.7 16
2017-08-17 15:00:00 33 6 Noroeste 16 Oeste 0 983.5 -2.2 18
2017-08-17 14:00:00 31.7 4 Noroeste 14 Oeste 0 984.5 -1.5 16
2017-08-17 13:00:00 29.1 4 Sudoeste 19 Sudoeste 0 985.2 -0.9 21
2017-08-17 12:00:00 26.5 5 Oeste 14 Oeste 0 985.7 -0.4 31
2017-08-17 11:00:00 23.4 4 Sudoeste 13 Sudoeste 0 986 0.1 44
2017-08-17 10:00:00 21.4 4 Oeste 9 Oeste 0 986.1 0.6 52
2017-08-17 09:00:00 18.5 3 Sur 6 Sudoeste 0 986.1 0.6 63
2017-08-17 08:00:00 15.9 2 Sudeste 9 Oeste 0 985.9 0.2 70
2017-08-17 07:00:00 15.7 6 Oeste 13 Oeste 0 985.5 -0.4 71
2017-08-17 06:00:00 16.8 11 Oeste 13 Oeste 0 985.5 -0.4 70
2017-08-17 05:00:00 17.5 10 Sudoeste 18 Noroeste 0 985.7 -0.6 66
2017-08-17 04:00:00 17.8 9 Oeste 13 Oeste 0 985.9 -0.5 66
2017-08-17 03:00:00 19.1 10 Noroeste 13 Noroeste 0 985.9 -0.3 62
2017-08-17 02:00:00 19.3 4 Nordeste 21 Noroeste 0 986.3 0.4 63
2017-08-17 01:00:00 20.4 11 Noroeste 19 Oeste 0 986.4 1.2 60
2017-08-17 00:00:00 21.1 15 Noroeste 23 Noroeste 0 986.2 1.7 54
2017-08-16 23:00:00 21.9 4 Norte 36 Noroeste 0 985.9 2 50
2017-08-16 22:00:00 23.3 26 Noroeste 37 Noroeste 0 985.2 1.8 46
2017-08-16 21:00:00 25.4 25 Noroeste 37 Noroeste 0 984.5 1.4 49
2017-08-16 20:00:00 28.2 30 Noroeste 42 Noroeste 0 983.9 0.6 44
2017-08-16 19:00:00 30.2 33 Noroeste 46 Noroeste 0 983.4 -0.3 36
2017-08-16 18:00:00 31.7 22 Noroeste 34 Noroeste 0 983.1 -1.2 33
2017-08-16 17:00:00 31.9 16 Noroeste 30 Noroeste 0 983.3 -1.6 30
2017-08-16 16:00:00 31.1 8 Noroeste 21 Oeste 0 983.7 -1.6 36
2017-08-16 15:00:00 29.8 10 Noroeste 22 Oeste 0 984.3 -1.4 41
2017-08-16 14:00:00 28.8 6 Noroeste 19 Oeste 0 984.9 -0.7 44
2017-08-16 13:00:00 26.5 12 Noroeste 24 Noroeste 0 985.3 -0.6 51
2017-08-16 12:00:00 25.1 18 Noroeste 26 Oeste 0 985.7 -0.1 56
2017-08-16 11:00:00 23.3 19 Noroeste 30 Noroeste 0 985.6 0.3 62
2017-08-16 10:00:00 21.4 13 Noroeste 21 Noroeste 0 985.9 1 71
2017-08-16 09:00:00 19.5 10 Noroeste 15 Noroeste 0 985.8 1.1 77
2017-08-16 08:00:00 18.3 6 Oeste 12 Oeste 0 985.3 0.7 80
2017-08-16 07:00:00 18.5 3 Noroeste 16 Oeste 0 984.9 0.2 80
2017-08-16 06:00:00 19.1 10 Oeste 19 Noroeste 0 984.7 -0.1 78
2017-08-16 05:00:00 19 11 Oeste 23 Oeste 0 984.6 -0.1 79
2017-08-16 04:00:00 19.3 14 Oeste 27 Oeste 0 984.7 0.2 78
2017-08-16 03:00:00 19.7 15 Oeste 21 Noroeste 0 984.8 0.2 77
2017-08-16 02:00:00 20 13 Oeste -- -- 0 984.7 0.8 74
2017-08-16 01:00:00 20.2 16 Oeste 31 Noroeste 0 984.5 1.2 74
2017-08-16 00:00:00 20.8 21 Oeste 28 Oeste 0 984.6 2.5 71
2017-08-15 23:00:00 21.8 17 Noroeste 30 Oeste 0 983.9 2.8 67
2017-08-15 22:00:00 24 12 Oeste 21 Oeste 0 983.3 2.4 59
2017-08-15 21:00:00 26.6 15 Oeste 27 Noroeste 0 982.1 1.8 52
2017-08-15 20:00:00 31 6 Sudeste 16 Sudeste 0 981.1 0.9 34
2017-08-15 19:00:00 31.5 14 Sudeste 27 Sur 0 980.9 0.3 32
2017-08-15 18:00:00 33.1 18 Este 31 Este 0 980.3 -1.1 25
2017-08-15 17:00:00 33.1 15 Este 37 Este 0 980.2 -1.8 25
2017-08-15 16:00:00 32.4 19 Este 35 Este 0 980.6 -1.8 27
2017-08-15 15:00:00 31.1 24 Este 37 Este 0 981.4 -1.5 29
2017-08-15 14:00:00 30.3 20 Este 34 Este 0 982 -1.2 30
2017-08-15 13:00:00 29.1 24 Este 35 Este 0 982.4 -0.8 36
2017-08-15 12:00:00 26.8 22 Este 36 Este 0 982.9 -0.4 42
2017-08-15 11:00:00 25 19 Este 26 Este 0 983.2 0.4 49
2017-08-15 10:00:00 23.2 20 Este 27 Este 0 983.2 0.9 53
2017-08-15 09:00:00 20.9 17 Este 24 Este 0 983.3 1 59
2017-08-15 08:00:00 18.8 13 Este 19 Este 0 982.8 0.6 66
2017-08-15 07:00:00 19.1 17 Este 22 Este 0 982.3 0.1 64
2017-08-15 06:00:00 19 11 Este 16 Este 0 982.3 -0.2 64
2017-08-15 05:00:00 20.3 15 Este 20 Este 0 982.2 -0.4 58
2017-08-15 04:00:00 20.9 13 Este 23 Este 0 982.2 -0.8 57
2017-08-15 03:00:00 22.3 19 Este 28 Sudeste 0 982.5 0.4 51
2017-08-15 02:00:00 22.5 18 Sudeste 25 Sudeste 0 982.6 0.6 53
2017-08-15 01:00:00 21.9 5 Noroeste 16 Sudeste 0 983 2.5 71
2017-08-15 00:00:00 22.5 11 Norte 20 Norte 0 982.1 2.7 69
2017-08-14 23:00:00 23 13 Norte 53 Oeste 0.4 982 4.2 70
2017-08-14 22:00:00 29.7 21 Nordeste 37 Nordeste 0 980.5 3 32
2017-08-14 21:00:00 30.9 19 Este 44 Este 0 979.4 1.9 29
2017-08-14 20:00:00 32.2 31 Este 50 Este 0 977.8 -0.3 28
2017-08-14 19:00:00 33.9 37 Este 50 Este 0 977.5 -1.2 27
2017-08-14 18:00:00 34.4 39 Este 49 Este 0 977.5 -2.3 26
2017-08-14 17:00:00 34.5 33 Este 46 Este 0 978.1 -2.4 24
2017-08-14 16:00:00 34.4 31 Este 46 Este 0 978.7 -2.6 23
2017-08-14 15:00:00 32.7 31 Este 44 Este 0 979.8 -2 27
2017-08-14 14:00:00 30.9 31 Este 45 Este 0 980.5 -1.7 30
2017-08-14 13:00:00 29.7 27 Este 45 Este 0 981.3 -1.1 33
2017-08-14 12:00:00 27.7 28 Este 37 Este 0 981.8 -0.6 36
2017-08-14 11:00:00 25.8 22 Este 30 Este 0 982.2 -0.1 43
2017-08-14 10:00:00 23.3 19 Este 24 Este 0 982.4 0.6 52
2017-08-14 09:00:00 20.8 14 Este 21 Este 0 982.4 0.8 64
2017-08-14 08:00:00 19 15 Este 22 Este 0 982.3 0.4 71
2017-08-14 07:00:00 18.9 17 Este 23 Este 0 981.8 0.3 72
2017-08-14 06:00:00 19.5 19 Este 23 Este 0 981.6 0.2 72
2017-08-14 05:00:00 20.4 16 Este 38 Este 0 981.9 0.8 69
2017-08-14 04:00:00 21.7 28 Este 39 Este 0 981.5 0.3 66
2017-08-14 03:00:00 22.1 21 Este 35 Este 0 981.4 0.1 64
2017-08-14 02:00:00 23.2 18 Este 28 Este 0 981.1 0.1 52
2017-08-14 01:00:00 22.9 12 Sudeste 17 Sudeste 0 981.2 0.8 48
2017-08-14 00:00:00 24.9 8 Sudeste 14 Este 0 981.3 1.6 38
2017-08-13 23:00:00 25.5 7 Nordeste 15 Este 0 981 1.4 33
2017-08-13 22:00:00 28.3 5 Sur 16 Sudoeste 0 980.4 0.8 29
2017-08-13 21:00:00 31.1 12 Sudoeste 18 Sudoeste 0 979.7 -0.4 25
2017-08-13 20:00:00 32.4 10 Este 17 Este 0 979.6 -1.3 20
2017-08-13 19:00:00 32.7 9 Este 23 Este 0 979.6 -2 18
2017-08-13 18:00:00 32.6 13 Este 24 Este 0 980.1 -2.4 17
2017-08-13 17:00:00 32 10 Este 25 Este 0 980.9 -2.4 21
2017-08-13 16:00:00 31.4 7 Norte 20 Este 0 981.6 -2.6 25
2017-08-13 15:00:00 30.3 5 Sudoeste 19 Sur 0 982.5 -2.5 30
2017-08-13 14:00:00 28.7 6 Este 19 Sudeste 0 983.3 -2.1 32
2017-08-13 13:00:00 26.9 5 Sur 17 Sudeste 0 984.2 -1.3 39
2017-08-13 12:00:00 24.5 5 Norte 10 Noroeste 0 985 -0.2 46
2017-08-13 11:00:00 22.4 6 Noroeste 14 Oeste 0 985.4 0.4 54
2017-08-13 10:00:00 19.6 6 Noroeste 13 Oeste 0 985.5 0.9 64
2017-08-13 09:00:00 16.5 3 Noroeste 7 Noroeste 0 985.2 0.7 78
2017-08-13 08:00:00 15.1 4 Oeste 8 Oeste 0 985 0.3 80
2017-08-13 07:00:00 14.6 5 Sudoeste 8 Noroeste 0 984.6 -0.4 79
2017-08-13 06:00:00 15.1 5 Noroeste 11 Noroeste 0 984.5 -0.7 79
2017-08-13 05:00:00 16.2 12 Noroeste 16 Oeste 0 984.7 -0.6 77
2017-08-13 04:00:00 17.1 9 Oeste 14 Noroeste 0 985 -0.3 72
2017-08-13 03:00:00 18 10 Noroeste 22 Noroeste 0 985.2 -0.1 68
2017-08-13 02:00:00 18.4 12 Noroeste 26 Noroeste 0 985.3 0.2 67
2017-08-13 01:00:00 19.2 19 Noroeste 27 Noroeste 0 985.3 0.8 65
2017-08-13 00:00:00 20.3 14 Oeste 30 Noroeste 0 985.3 1.4 61
2017-08-12 23:00:00 21.7 15 Oeste 25 Oeste 0 985.1 1.5 55
2017-08-12 22:00:00 23.8 15 Noroeste 25 Noroeste 0 984.5 1.2 40
2017-08-12 21:00:00 27.2 14 Norte 28 Norte 0 983.9 0.2 28
2017-08-12 20:00:00 29.4 19 Norte 35 Noroeste 0 983.6 -0.8 26
2017-08-12 19:00:00 30.1 26 Noroeste 39 Noroeste 0 983.3 -1.9 24
2017-08-12 18:00:00 30.4 19 Noroeste 33 Noroeste 0 983.7 -2.4 21
2017-08-12 17:00:00 28.9 16 Noroeste 24 Noroeste 0 984.4 -2.6 20
2017-08-12 16:00:00 28.8 12 Noroeste 23 Noroeste 0 985.2 -2.7 25
2017-08-12 15:00:00 27.6 10 Noroeste 19 Oeste 0 986.1 -2.2 25
2017-08-12 14:00:00 25.6 6 Noroeste 16 Norte 0 987 -1.6 29
2017-08-12 13:00:00 24 7 Sudoeste 17 Noroeste 0 987.9 -0.7 33
2017-08-12 12:00:00 22.1 3 Sudoeste 13 Oeste 0 988.3 -0.2 41
2017-08-12 11:00:00 19.8 6 Oeste 19 Noroeste 0 988.6 0.4 49
2017-08-12 10:00:00 17.5 14 Noroeste 19 Noroeste 0 988.6 0.9 57
2017-08-12 09:00:00 15.2 14 Oeste 18 Oeste 0 988.5 1.1 64
2017-08-12 08:00:00 12.5 9 Sudoeste 18 Sudoeste 0 988.2 0.4 74
2017-08-12 07:00:00 12.6 8 Sudoeste 27 Noroeste 0 987.7 0 75
2017-08-12 06:00:00 13.4 17 Noroeste 22 Noroeste 0 987.4 -0.2 73
2017-08-12 05:00:00 14.2 15 Noroeste 24 Noroeste 0 987.8 0.2 68
2017-08-12 04:00:00 15.2 8 Norte 39 Noroeste 0 987.7 -0.3 60
2017-08-12 03:00:00 15.8 28 Noroeste 44 Noroeste 0 987.6 -0.6 57
2017-08-12 02:00:00 15.7 30 Noroeste 47 Noroeste 0 987.6 -0.7 59
2017-08-12 01:00:00 16 31 Noroeste 46 Noroeste 0 988 0.2 64
2017-08-12 00:00:00 16.4 27 Oeste 35 Oeste 0 988.2 0.8 62
2017-08-11 23:00:00 17.1 25 Noroeste 40 Noroeste 0 988.3 1.2 57
2017-08-11 22:00:00 18.2 29 Noroeste 42 Noroeste 0 987.8 1 52
2017-08-11 21:00:00 20.1 32 Noroeste 48 Noroeste 0 987.4 0.5 44
2017-08-11 20:00:00 21.6 36 Noroeste 53 Noroeste 0 987.1 0 38
2017-08-11 19:00:00 22.9 33 Noroeste 49 Noroeste 0 986.8 -0.5 33
2017-08-11 18:00:00 23.4 36 Noroeste 54 Noroeste 0 986.9 -0.7 31
2017-08-11 17:00:00 23.5 34 Noroeste 56 Noroeste 0 987.1 -0.8 32
2017-08-11 16:00:00 23.5 34 Noroeste 51 Noroeste 0 987.3 -1.2 32
2017-08-11 15:00:00 23 30 Noroeste 51 Noroeste 0 987.6 -1.2 34
2017-08-11 14:00:00 22.3 32 Noroeste 49 Noroeste 0 987.9 -1.1 33
2017-08-11 13:00:00 21.4 24 Noroeste 45 Noroeste 0 988.5 -0.8 39
2017-08-11 12:00:00 20.1 31 Noroeste 49 Noroeste 0 988.8 -0.3 42
2017-08-11 11:00:00 18.9 30 Noroeste 46 Oeste 0 989 -0.3 45
2017-08-11 10:00:00 17.3 30 Noroeste 43 Noroeste 0 989.3 0 56
2017-08-11 09:00:00 15.4 27 Noroeste 36 Noroeste 0 989.1 0.2 65
2017-08-11 08:00:00 13.1 18 Oeste 26 Noroeste 0 989.3 -0.2 75
2017-08-11 07:00:00 13 17 Noroeste 24 Noroeste 0 989.3 -0.6 73
2017-08-11 06:00:00 12.7 17 Noroeste 23 Noroeste 0 988.9 -1.4 74
2017-08-11 05:00:00 13.1 15 Oeste 22 Noroeste 0 989.5 -1.2 72
2017-08-11 04:00:00 13.3 22 Noroeste 28 Noroeste 0 989.9 -1.1 71
2017-08-11 03:00:00 13.8 18 Oeste 41 Oeste 0 990.3 -0.6 66
2017-08-11 02:00:00 14.9 29 Oeste 47 Oeste 0 990.7 0 61
2017-08-11 01:00:00 15.3 29 Oeste 40 Oeste 0 991 0.9 60
2017-08-11 00:00:00 14.9 17 Oeste -- -- 0 990.9 1.2 65
2017-08-10 23:00:00 15.5 18 Noroeste 29 Noroeste 0 990.7 1.3 67
2017-08-10 22:00:00 16.8 21 Noroeste 33 Noroeste 0 990.1 1.1 62
2017-08-10 21:00:00 17.9 25 Noroeste 49 Noroeste 0 989.7 0.9 58
2017-08-10 20:00:00 19 38 Noroeste 52 Noroeste 0 989.4 0.6 55
2017-08-10 19:00:00 20.8 37 Noroeste 51 Noroeste 0 989 -0.3 49
2017-08-10 18:00:00 21.4 35 Noroeste 53 Noroeste 0 988.8 -0.7 50
2017-08-10 17:00:00 21.7 39 Noroeste 57 Noroeste 0 988.8 -0.9 45
2017-08-10 16:00:00 21.2 37 Noroeste 54 Noroeste 0 989.3 -0.5 48
2017-08-10 15:00:00 20.8 32 Noroeste 51 Noroeste 0 989.5 0 50
2017-08-10 14:00:00 19.5 34 Noroeste 53 Noroeste 0 989.7 0.1 53
2017-08-10 13:00:00 18.5 32 Noroeste 50 Noroeste 0 989.8 0.6 55
2017-08-10 12:00:00 18.5 30 Noroeste 45 Noroeste 0 989.5 0.2 53
2017-08-10 11:00:00 18.2 29 Noroeste 50 Noroeste 0 989.6 0.7 52
2017-08-10 10:00:00 17.3 33 Noroeste 44 Noroeste 0 989.2 0.7 56
2017-08-10 09:00:00 16 21 Noroeste 36 Noroeste 0 989.3 1.2 61
2017-08-10 08:00:00 14.3 27 Oeste 36 Noroeste 0 988.9 0.3 65
2017-08-10 07:00:00 13.7 19 Noroeste 35 Noroeste 0 988.5 -0.5 68
2017-08-10 06:00:00 13.9 27 Noroeste 39 Oeste 0 988.1 -1.1 70
2017-08-10 05:00:00 13.2 15 Noroeste 22 Noroeste 0 988.6 -0.7 71
2017-08-10 04:00:00 13.1 11 Oeste 23 Noroeste 0 989 -0.3 71
2017-08-10 03:00:00 13.7 15 Noroeste 22 Noroeste 0 989.2 0.2 69
2017-08-10 02:00:00 13.6 18 Noroeste 24 Noroeste 0 989.3 0.7 70
2017-08-10 01:00:00 13.9 14 Noroeste 23 Noroeste 0 989.3 2 70
2017-08-10 00:00:00 14.3 14 Noroeste 30 Noroeste 0 989 2.7 67
2017-08-09 23:00:00 15.3 19 Noroeste 39 Noroeste 0 988.6 3.3 61
2017-08-09 22:00:00 16.4 28 Noroeste 50 Noroeste 0 987.3 2.5 56
2017-08-09 21:00:00 18 34 Noroeste 54 Noroeste 0 986.3 2 48
2017-08-09 20:00:00 20 36 Noroeste 64 Noroeste 0 985.3 0.8 37
2017-08-09 19:00:00 20.7 44 Noroeste 61 Noroeste 0 984.8 -0.1 35
2017-08-09 18:00:00 21.5 37 Noroeste 62 Noroeste 0 984.3 -0.3 34
2017-08-09 17:00:00 21.6 37 Noroeste 57 Noroeste 0 984.5 0 34
2017-08-09 16:00:00 20.8 43 Noroeste 64 Noroeste 0 984.9 0.6 39
2017-08-09 15:00:00 21.3 32 Noroeste 48 Noroeste 0 984.6 0.4 41
2017-08-09 14:00:00 20.5 32 Noroeste 49 Noroeste 0 984.5 0.7 46
2017-08-09 13:00:00 20.1 35 Noroeste 48 Noroeste 0 984.3 0.6 49
2017-08-09 12:00:00 20.1 25 Noroeste 41 Oeste 0 984.2 0.6 49
2017-08-09 11:00:00 19.1 27 Noroeste 38 Noroeste 0 983.8 0.3 51
2017-08-09 10:00:00 18.3 14 Noroeste 25 Oeste 0 983.7 0.3 58
2017-08-09 09:00:00 15.5 14 Noroeste 24 Noroeste 0 983.6 0.3 70
2017-08-09 08:00:00 13.9 5 Noroeste 14 Noroeste 0 983.5 -0.1 76
2017-08-09 07:00:00 13.2 14 Noroeste 25 Noroeste 0 983.4 -0.7 79
2017-08-09 06:00:00 13.8 19 Noroeste 29 Noroeste 0 983.3 -0.4 76
2017-08-09 05:00:00 13.5 13 Noroeste 18 Noroeste 0 983.6 0.3 77
2017-08-09 04:00:00 14.1 7 Sudoeste 15 Oeste 0 984.1 0.1 75
2017-08-09 03:00:00 14.4 12 Oeste 35 Noroeste 0 983.7 -0.4 73
2017-08-09 02:00:00 14.9 21 Noroeste 30 Noroeste 0 983.3 -0.9 71
2017-08-09 01:00:00 15.2 11 Noroeste 19 Oeste 0 984 0.2 70
2017-08-09 00:00:00 16 13 Noroeste 25 Noroeste 0 984.1 0.9 63
2017-08-08 23:00:00 16.9 19 Noroeste 26 Noroeste 0 984.2 1.7 58
2017-08-08 22:00:00 18.5 14 Norte 27 Noroeste 0 983.8 1.4 54
2017-08-08 21:00:00 20.5 21 Noroeste 38 Norte 0 983.2 1 47
2017-08-08 20:00:00 21.6 29 Norte 44 Norte 0 982.5 0.2 43
2017-08-08 19:00:00 22.7 32 Noroeste 53 Noroeste 0 982.4 0.2 42
2017-08-08 18:00:00 24 35 Noroeste 59 Noroeste 0 982.2 -0.1 35
2017-08-08 17:00:00 24.3 33 Noroeste 52 Noroeste 0 982.3 -0.2 34
2017-08-08 16:00:00 24.5 31 Noroeste 51 Noroeste 0 982.2 -0.1 36
2017-08-08 15:00:00 23.6 31 Noroeste 45 Noroeste 0 982.3 -0.1 37
2017-08-08 14:00:00 23.4 30 Noroeste 50 Noroeste 0 982.5 0.4 43
2017-08-08 13:00:00 23 36 Noroeste 51 Noroeste 0 982.3 0.2 40
2017-08-08 12:00:00 21.7 31 Noroeste 53 Noroeste 0 982.4 0.4 44
2017-08-08 11:00:00 20.2 35 Noroeste 51 Noroeste 0 982.1 1 48
2017-08-08 10:00:00 18.5 26 Noroeste 38 Noroeste 0 982.1 1.5 50
2017-08-08 09:00:00 17 24 Noroeste 45 Noroeste 0 982 2.1 62
2017-08-08 08:00:00 17.5 33 Noroeste 45 Noroeste 0 981.1 1.4 66
2017-08-08 07:00:00 17.6 32 Noroeste 47 Noroeste 0 980.6 1.1 70
2017-08-08 06:00:00 18.2 32 Noroeste 43 Noroeste 0 979.9 1 70
2017-08-08 05:00:00 18.6 37 Noroeste 51 Noroeste 0 979.7 1.4 68
2017-08-08 04:00:00 19.4 35 Noroeste 63 Noroeste 0 979.5 1.7 67
2017-08-08 03:00:00 19.8 39 Noroeste 53 Noroeste 0 978.9 1.9 67
2017-08-08 02:00:00 20.3 27 Noroeste 42 Noroeste 0 978.3 2.7 67
2017-08-08 01:00:00 20.9 33 Noroeste 55 Noroeste 0 977.8 3.8 66
2017-08-08 00:00:00 21.4 36 Noroeste 54 Noroeste 0 977 3.7 70
2017-08-07 23:00:00 22.1 32 Noroeste 47 Oeste 0 975.6 2.6 71
2017-08-07 22:00:00 28.6 17 Este 44 Este 0 974 0.7 55
2017-08-07 21:00:00 29.9 30 Este 47 Este 0 973.3 -0.6 49
2017-08-07 20:00:00 30.8 38 Este 53 Este 0 973 -1.5 46
2017-08-07 19:00:00 31.8 37 Este 55 Este 0 973.3 -2.2 42
2017-08-07 18:00:00 32.6 38 Este 54 Este 0 973.9 -2.4 40
2017-08-07 17:00:00 33.6 31 Este 41 Este 0 974.5 -3.3 36
2017-08-07 16:00:00 34.3 26 Este 39 Este 0 975.5 -3.4 30
2017-08-07 15:00:00 32.6 28 Este 41 Este 0 976.3 -3.7 35
2017-08-07 14:00:00 30.2 27 Este 42 Este 0 977.8 -2.8 46
2017-08-07 13:00:00 28.6 21 Este 32 Este 0 978.9 -2.2 52
2017-08-07 12:00:00 27.7 5 Sudeste 12 Sudeste 0 980 -1.2 46
2017-08-07 11:00:00 23.1 4 Oeste 8 Noroeste 0 980.6 -0.4 55
2017-08-07 10:00:00 20.7 5 Oeste 9 Oeste 0 981.1 0.2 63
2017-08-07 09:00:00 19.9 5 Oeste 9 Oeste 0 981.2 0 66
2017-08-07 08:00:00 19 7 Oeste 10 Oeste 0 981 -0.4 69
2017-08-07 07:00:00 18.8 9 Oeste 14 Oeste 0 980.9 -0.8 70
2017-08-07 06:00:00 19.1 10 Oeste 16 Oeste 0 981.2 -0.9 69
2017-08-07 05:00:00 19.1 14 Oeste 19 Oeste 0 981.4 -1.1 69
2017-08-07 04:00:00 19.3 13 Oeste 23 Oeste 0 981.7 -0.9 69
2017-08-07 03:00:00 19.5 14 Noroeste 23 Noroeste 0 982.1 -0.5 69
2017-08-07 02:00:00 19.7 15 Oeste 27 Oeste 0 982.5 0 68
2017-08-07 01:00:00 20.1 12 Oeste 21 Oeste 0 982.6 0.7 66
2017-08-07 00:00:00 20.7 13 Oeste 23 Oeste 0 982.6 1.1 64
2017-08-06 23:00:00 21.4 14 Oeste 23 Noroeste 0 982.5 1 61
2017-08-06 22:00:00 22.8 17 Noroeste 29 Noroeste 0 981.9 0 55
2017-08-06 21:00:00 24.8 21 Noroeste 33 Noroeste 0 981.5 -0.9 48
2017-08-06 20:00:00 27.4 26 Noroeste 33 Noroeste 0 981.5 -1.5 40
2017-08-06 19:00:00 28.7 14 Noroeste 23 Noroeste 0 981.9 -1.6 36
2017-08-06 18:00:00 28.9 12 Noroeste 24 Noroeste 0 982.4 -1.6 35
2017-08-06 17:00:00 28.4 14 Oeste 26 Oeste 0 983 -1.6 35
2017-08-06 16:00:00 27.5 12 Oeste 27 Noroeste 0 983.5 -2 35
2017-08-06 15:00:00 25.9 15 Noroeste 31 Noroeste 0 984 -2 39
2017-08-06 14:00:00 24.9 19 Noroeste 33 Oeste 0 984.6 -1.4 41
2017-08-06 13:00:00 23.4 24 Noroeste 41 Oeste 0 985.5 -0.6 44
2017-08-06 12:00:00 22.1 31 Oeste 46 Noroeste 0 986 0.4 49
2017-08-06 11:00:00 20.4 36 Oeste 52 Noroeste 0 986 0.8 56
2017-08-06 10:00:00 19.4 34 Noroeste 48 Noroeste 0 986.1 1.5 59
2017-08-06 09:00:00 17.8 31 Noroeste 45 Noroeste 0 985.6 1.2 66
2017-08-06 08:00:00 16.5 32 Noroeste 49 Noroeste 0 985.2 1 70
2017-08-06 07:00:00 16.4 34 Noroeste 48 Noroeste 0 984.6 0.4 69
2017-08-06 06:00:00 16.6 35 Noroeste 53 Noroeste 0 984.4 0.3 72
2017-08-06 05:00:00 17.1 36 Noroeste 55 Noroeste 0 984.2 0.1 73
2017-08-06 04:00:00 17.1 36 Noroeste 57 Oeste 0 984.2 0.1 76
2017-08-06 03:00:00 17.4 41 Noroeste 55 Oeste 0 984.1 0.3 78
2017-08-06 02:00:00 17.9 37 Noroeste 50 Noroeste 0 984.1 0.3 79
2017-08-06 01:00:00 17 34 Noroeste 60 Oeste 0 984.1 1.3 86
2017-08-06 00:00:00 17.3 34 Noroeste 51 Noroeste 1.2 983.8 1.2 83
2017-08-05 23:00:00 17.1 40 Noroeste 59 Noroeste 0.2 983.8 2 88
2017-08-05 22:00:00 20.1 40 Noroeste 58 Noroeste 0 982.8 1.5 64
2017-08-05 21:00:00 21.3 42 Noroeste 62 Noroeste 0 982.6 1.8 62
2017-08-05 20:00:00 23 46 Noroeste 68 Noroeste 0 981.8 1.2 56
2017-08-05 19:00:00 24.9 46 Noroeste 62 Noroeste 0 981.3 0.4 52
2017-08-05 18:00:00 27.1 43 Noroeste 63 Noroeste 0 980.8 -0.4 47
2017-08-05 17:00:00 28.3 46 Noroeste 62 Noroeste 0 980.6 -1.2 45
2017-08-05 16:00:00 29.4 43 Noroeste 58 Noroeste 0 980.9 -1.2 44
2017-08-05 15:00:00 30 38 Noroeste 54 Noroeste 0 981.2 -1.2 44
2017-08-05 14:00:00 30 39 Oeste 52 Oeste 0 981.8 -0.5 46
2017-08-05 13:00:00 29.3 36 Noroeste 49 Noroeste 0 982.1 -0.2 47
2017-08-05 12:00:00 28.1 36 Noroeste 49 Noroeste 0 982.4 0.3 51
2017-08-05 11:00:00 27.2 28 Noroeste 40 Noroeste 0 982.3 0.9 57
2017-08-05 10:00:00 25.3 26 Noroeste 35 Noroeste 0 982.3 1.1 64
2017-08-05 09:00:00 23.6 22 Oeste 29 Oeste 0 982.1 1.2 70
2017-08-05 08:00:00 22.4 15 Oeste 21 Oeste 0 981.4 0.5 73
2017-08-05 07:00:00 21.5 10 Oeste 19 Oeste 0 981.2 0.3 77
2017-08-05 06:00:00 22 14 Oeste 20 Noroeste 0 980.9 -0.2 74
2017-08-05 05:00:00 22.5 13 Oeste 24 Oeste 0 980.9 -0.4 73
2017-08-05 04:00:00 22.8 13 Noroeste 20 Noroeste 0 980.9 -0.5 71
2017-08-05 03:00:00 23.4 8 Oeste 19 Oeste 0 981.1 0 69
2017-08-05 02:00:00 23.9 11 Oeste 18 Oeste 0 981.3 0.3 66
2017-08-05 01:00:00 24.9 12 Oeste 29 Oeste 0 981.4 1.2 62
2017-08-05 00:00:00 26 22 Noroeste 34 Noroeste 0 981.1 1.5 58
2017-08-04 23:00:00 28 17 Oeste 22 Oeste 0 981 2 49
2017-08-04 22:00:00 29.9 14 Noroeste 36 Norte 0 980.2 1.2 39
2017-08-04 21:00:00 32.4 24 Norte 39 Norte 0 979.6 0.3 34
2017-08-04 20:00:00 34.6 25 Nordeste 36 Nordeste 0 979 -0.8 31
2017-08-04 19:00:00 35.6 22 Noroeste 35 Noroeste 0 979 -1.5 27
2017-08-04 18:00:00 35.6 24 Noroeste 36 Noroeste 0 979.3 -1.8 27
2017-08-04 17:00:00 35.6 21 Noroeste 36 Noroeste 0 979.8 -2 26
2017-08-04 16:00:00 34.7 16 Noroeste 37 Oeste 0 980.5 -1.6 28
2017-08-04 15:00:00 34.3 19 Noroeste 37 Noroeste 0 981.1 -1.6 30
2017-08-04 14:00:00 33.4 26 Noroeste 40 Noroeste 0 981.8 -1.1 30
2017-08-04 13:00:00 32.1 19 Noroeste 32 Noroeste 0 982.1 -0.6 32
2017-08-04 12:00:00 29.9 18 Noroeste 31 Oeste 0 982.7 -0.1 40
2017-08-04 11:00:00 26.9 20 Noroeste 27 Oeste 0 982.9 0.5 52
2017-08-04 10:00:00 25 13 Oeste 22 Noroeste 0 982.7 0.7 60
2017-08-04 09:00:00 22.8 10 Noroeste 17 Noroeste 0 982.8 1.2 71
2017-08-04 08:00:00 21.2 4 Noroeste 15 Noroeste 0 982.4 0.9 76
2017-08-04 07:00:00 20.3 9 Oeste 19 Noroeste 0 982 0.7 81
2017-08-04 06:00:00 20.5 7 Noroeste 16 Noroeste 0 981.6 0.4 81
2017-08-04 05:00:00 20.9 7 Noroeste 17 Noroeste 0 981.5 0.1 79
2017-08-04 04:00:00 21.5 9 Noroeste 15 Oeste 0 981.3 0.1 77
2017-08-04 03:00:00 22.2 10 Oeste 18 Noroeste 0 981.2 0.1 74
2017-08-04 02:00:00 23 9 Noroeste 30 Noroeste 0 981.4 1 72
2017-08-04 01:00:00 24.1 22 Noroeste 30 Oeste 0 981.2 1.9 68
2017-08-04 00:00:00 25.1 19 Oeste 32 Oeste 0 981.1 2.6 64
2017-08-03 23:00:00 27.7 19 Oeste 26 Noroeste 0 980.4 2.1 52
2017-08-03 22:00:00 31.5 15 Norte 24 Norte 0 979.3 0.8 35
2017-08-03 21:00:00 35.4 10 Noroeste 18 Noroeste 0 978.5 -0.4 20
2017-08-03 20:00:00 37.2 12 Noroeste 26 Noroeste 0 978.3 -1.1 16
2017-08-03 19:00:00 37.6 17 Noroeste 24 Oeste 0 978.5 -1.5 15
2017-08-03 18:00:00 38.8 12 Oeste 21 Oeste 0 978.9 -1.8 14
2017-08-03 17:00:00 39.1 4 Sudoeste 16 Sudeste 0 979.4 -2.2 14
2017-08-03 16:00:00 38.3 6 Nordeste 22 Oeste 0 980 -2.4 15
2017-08-03 15:00:00 37.9 5 Sudeste 15 Nordeste 0 980.7 -2.2 17
2017-08-03 14:00:00 35.3 7 Oeste 14 Noroeste 0 981.6 -1.6 24
2017-08-03 13:00:00 33.6 6 Noroeste 13 Oeste 0 982.4 -1.1 30
2017-08-03 12:00:00 31.3 8 Sudoeste 14 Sudoeste 0 982.9 -0.3 38
2017-08-03 11:00:00 29.2 5 Oeste 12 Noroeste 0 983.2 0.3 47
2017-08-03 10:00:00 26.3 4 Oeste 11 Noroeste 0 983.5 1 58
2017-08-03 09:00:00 23.5 2 Oeste 5 Oeste 0 983.2 1.1 64
2017-08-03 08:00:00 20.9 0 Calma 12 Sudoeste 0 982.9 1.4 72
2017-08-03 07:00:00 20.6 5 Sudeste 9 Sur 0 982.5 1 75
2017-08-03 06:00:00 21.7 0 Calma 13 Sur 0 982.1 1.2 68
2017-08-03 05:00:00 22.7 11 Sur 20 Sudeste 0 981.5 0.8 62
2017-08-03 04:00:00 24.8 14 Sudeste 32 Este 0 981.5 0.6 58
2017-08-03 03:00:00 25.1 23 Este 37 Este 0 980.9 0.2 58
2017-08-03 02:00:00 26.3 30 Este 40 Este 0 980.7 -0.1 53
2017-08-03 01:00:00 26.6 24 Este 36 Este 0 980.9 0.8 46
2017-08-03 00:00:00 27.7 27 Este 34 Este 0 980.7 1.4 39
2017-08-02 23:00:00 29.3 22 Este 29 Este 0 980.8 2 33
2017-08-02 22:00:00 30.2 21 Este 36 Este 0 980.1 1.1 32
2017-08-02 21:00:00 32.5 26 Este 53 Sudeste 0 979.3 -0.3 28
2017-08-02 20:00:00 35.2 38 Sudeste 55 Sudeste 0 978.8 -1.3 21
2017-08-02 19:00:00 36.5 30 Sudeste 47 Este 0 979 -1.7 19
2017-08-02 18:00:00 36.1 28 Este 44 Este 0 979.6 -1.9 19
2017-08-02 17:00:00 35.7 26 Este 40 Este 0 980.1 -2.2 19
2017-08-02 16:00:00 35.9 17 Sudeste 44 Sudeste 0 980.7 -2.4 19
2017-08-02 15:00:00 34.5 28 Sudeste 48 Sudeste 0 981.5 -2.7 23
2017-08-02 14:00:00 33.4 28 Este 38 Sudeste 0 982.3 -1.6 32
2017-08-02 13:00:00 31.3 8 Este 22 Este 0 983.1 -1.2 40
2017-08-02 12:00:00 29.1 6 Sudeste 13 Sur 0 984.2 0.2 44
2017-08-02 11:00:00 25.6 4 Norte 9 Sudoeste 0 983.9 -0.1 54
2017-08-02 10:00:00 23.4 3 Oeste 13 Oeste 0 984.3 0.6 60
2017-08-02 09:00:00 21 5 Oeste 8 Oeste 0 984 0.6 68
2017-08-02 08:00:00 19.2 3 Sudoeste 8 Sudoeste 0 984 0.6 75
2017-08-02 07:00:00 18.2 6 Oeste 8 Oeste 0 983.7 0.5 77
2017-08-02 06:00:00 18.5 5 Oeste 12 Oeste 0 983.4 -0.1 76
2017-08-02 05:00:00 18.9 5 Sudoeste 15 Noroeste 0 983.4 0.1 76
2017-08-02 04:00:00 19.1 6 Oeste 10 Noroeste 0 983.2 0.2 77
2017-08-02 03:00:00 19.5 4 Oeste 12 Oeste 0 983.5 0.9 74
2017-08-02 02:00:00 20 -- -- -- -- 0 983.3 1.4 73
2017-08-02 01:00:00 20.8 12 Oeste 15 Oeste 0 983 2.6 70
2017-08-02 00:00:00 21.9 12 Oeste 19 Noroeste 0 982.6 3.4 65
2017-08-01 23:00:00 23.1 15 Noroeste 24 Oeste 0 981.9 3.7 60
2017-08-01 22:00:00 24.9 16 Noroeste 30 Noroeste 0 980.4 2.4 53
2017-08-01 21:00:00 27.8 21 Noroeste 36 Noroeste 0 979.2 1 47
2017-08-01 20:00:00 30.7 27 Noroeste 35 Oeste 0 978.2 -0.2 39
2017-08-01 19:00:00 33.5 7 Oeste 21 Noroeste 0 978 -1 31
2017-08-01 18:00:00 32.4 10 Noroeste 19 Oeste 0 978.2 -0.8 34
2017-08-01 17:00:00 32.3 6 Norte 18 Oeste 0 978.4 -1 33
2017-08-01 16:00:00 31.3 11 Sudoeste 21 Sudoeste 0 979 -0.9 37
2017-08-01 15:00:00 31.1 4 Oeste 15 Oeste 0 979 -1.1 37
2017-08-01 14:00:00 30.6 7 Sudoeste 22 Oeste 0 979.4 -0.6 39
2017-08-01 13:00:00 26.7 9 Oeste 22 Oeste 0 979.9 0.1 49
2017-08-01 12:00:00 25.1 14 Oeste 24 Noroeste 0 980.1 0.8 54
2017-08-01 11:00:00 24.1 14 Noroeste 28 Oeste 0 980 1.5 57
2017-08-01 10:00:00 21.9 15 Oeste 29 Noroeste 0 979.8 2 63
2017-08-01 09:00:00 20.2 14 Oeste 20 Oeste 0 979.3 1.4 68
2017-08-01 08:00:00 18.9 10 Oeste 25 Oeste 0 978.5 0.6 73
2017-08-01 07:00:00 18.6 14 Oeste 27 Noroeste 0 977.8 0.3 74
2017-08-01 06:00:00 18.8 12 Oeste 23 Oeste 0 977.9 0.3 73
2017-08-01 05:00:00 19 14 Oeste 26 Oeste 0 977.9 0.6 71
2017-08-01 04:00:00 19.2 15 Noroeste 27 Oeste 0 977.5 0.5 71
2017-08-01 03:00:00 19.4 17 Oeste 28 Noroeste 0 977.6 1 72
2017-08-01 02:00:00 19.5 20 Noroeste 33 Noroeste 0 977.3 1.6 74
2017-08-01 01:00:00 19.9 22 Noroeste 40 Noroeste 0 977 2.7 73
2017-08-01 00:00:00 20.5 30 Noroeste 46 Noroeste 0 976.6 3.7 72
2017-07-31 23:00:00 21.9 31 Noroeste 42 Noroeste 0 975.7 3.6 68
2017-07-31 22:00:00 23.3 30 Noroeste 42 Noroeste 0 974.3 2.6 64
2017-07-31 21:00:00 27.5 26 Noroeste 40 Noroeste 0 972.9 1 50
2017-07-31 20:00:00 31.8 27 Noroeste 37 Noroeste 0 972.1 -0.3 38
2017-07-31 19:00:00 35 24 Oeste 35 Oeste 0 971.7 -1.6 32
2017-07-31 18:00:00 36 12 Este 31 Este 0 971.9 -2.1 29
2017-07-31 17:00:00 35.5 13 Sudeste 33 Este 0 972.4 -2.5 29
2017-07-31 16:00:00 33.7 23 Este 36 Este 0 973.3 -2.7 33
2017-07-31 15:00:00 32 24 Este 34 Este 0 974 -2.9 39
2017-07-31 14:00:00 30.9 17 Este 28 Este 0 974.9 -2.2 43
2017-07-31 13:00:00 28.3 10 Sur 20 Sudeste 0 976 -1.5 45
2017-07-31 12:00:00 26 6 Sur 19 Sudoeste 0 976.9 -0.5 50
2017-07-31 11:00:00 23.9 5 Oeste 13 Oeste 0 977.1 -0.1 54
2017-07-31 10:00:00 20.9 10 Noroeste 15 Oeste 0 977.5 0.5 64
2017-07-31 09:00:00 19.7 10 Oeste 16 Oeste 0 977.4 0.5 69
2017-07-31 08:00:00 18.9 11 Oeste 19 Oeste 0 977.2 0.1 71
2017-07-31 07:00:00 18.4 11 Noroeste 21 Oeste 0 977 -0.2 74
2017-07-31 06:00:00 18.3 15 Oeste 29 Noroeste 0 976.9 -0.6 74
2017-07-31 05:00:00 18.6 23 Oeste 43 Noroeste 0 977.1 -0.6 73
2017-07-31 04:00:00 18.9 28 Oeste 42 Oeste 0 977.2 -0.2 73
2017-07-31 03:00:00 19.1 30 Oeste 44 Oeste 0 977.5 0.3 74
2017-07-31 02:00:00 19.4 33 Oeste 46 Oeste 0 977.7 1 74
2017-07-31 01:00:00 19.8 29 Oeste 44 Oeste 0 977.4 1.7 72
2017-07-31 00:00:00 20.8 31 Noroeste 44 Noroeste 0 977.2 2.6 70
2017-07-30 23:00:00 22.2 26 Noroeste 41 Noroeste 0 976.7 3.2 67
2017-07-30 22:00:00 23.9 25 Noroeste 40 Noroeste 0 975.7 2.1 62
2017-07-30 21:00:00 27.2 28 Noroeste 40 Noroeste 0 974.6 0.7 53
2017-07-30 20:00:00 34.4 19 Noroeste 36 Noroeste 0 973.5 -0.9 32
2017-07-30 19:00:00 37.3 4 Noroeste 13 Oeste 0 973.6 -1.4 21
2017-07-30 18:00:00 37.3 3 Oeste 14 Sudeste 0 973.9 -1.9 20
2017-07-30 17:00:00 37.6 3 Norte 17 Sur 0 974.4 -2.2 21
2017-07-30 16:00:00 37.4 5 Nordeste 26 Este 0 975 -2.5 24
2017-07-30 15:00:00 35.4 14 Sudeste 28 Este 0 975.8 -2.5 30
2017-07-30 14:00:00 33.8 10 Este 18 Este 0 976.6 -2.2 36
2017-07-30 13:00:00 32.7 8 Oeste 16 Sudeste 0 977.5 -1.4 34
2017-07-30 12:00:00 30.6 4 Oeste 10 Sur 0 978.3 -0.6 43
2017-07-30 11:00:00 28.8 5 Sudoeste 13 Noroeste 0 978.8 0.2 49
2017-07-30 10:00:00 26.7 6 Oeste 13 Oeste 0 978.9 0.3 55
2017-07-30 09:00:00 23.7 5 Oeste 9 Noroeste 0 978.9 1 66
2017-07-30 08:00:00 21.7 5 Sudoeste 10 Sudoeste 0 978.6 0.9 74
2017-07-30 07:00:00 21.6 6 Sudoeste 21 Sudeste 0 978.6 0.9 76
2017-07-30 06:00:00 24.1 16 Sudeste 22 Sudeste 0 977.9 0.3 73
2017-07-30 05:00:00 24.7 13 Sudeste 30 Sudeste 0 977.7 -0.2 72
2017-07-30 04:00:00 25.5 21 Este 33 Este 0 977.7 -0.2 69
2017-07-30 03:00:00 26.5 22 Este 30 Este 0 977.6 0.1 63
2017-07-30 02:00:00 26.6 17 Este 26 Este 0 977.9 0.3 60
2017-07-30 01:00:00 27.7 17 Este 23 Este 0 977.9 0.7 56
2017-07-30 00:00:00 29.7 14 Este 24 Este 0 977.5 0.8 48
2017-07-29 23:00:00 30.2 15 Este 21 Este 0 977.6 1.1 42
2017-07-29 22:00:00 33 3 Nordeste 11 Este 0 977.2 0.6 29
2017-07-29 21:00:00 35.9 10 Este 17 Este 0 976.7 -0.3 22
2017-07-29 20:00:00 38.1 10 Este 18 Este 0 976.5 -1.1 19
2017-07-29 19:00:00 37.6 8 Nordeste 26 Este 0 976.6 -1.6 21
2017-07-29 18:00:00 37 14 Este 28 Nordeste 0 977 -1.9 24
2017-07-29 17:00:00 36.3 13 Este 28 Este 0 977.6 -2.1 27
2017-07-29 16:00:00 35.1 18 Este 30 Este 0 978.2 -2.2 31
2017-07-29 15:00:00 33.8 19 Este 31 Este 0 978.9 -2 32
2017-07-29 14:00:00 32.1 22 Este 37 Este 0 979.7 -1.4 38
2017-07-29 13:00:00 31.2 18 Este 32 Este 0 980.4 -1.3 41
2017-07-29 12:00:00 29.5 18 Este 28 Este 0 980.9 -0.8 45
2017-07-29 11:00:00 27.2 19 Este 25 Este 0 981.1 -0.4 50
2017-07-29 10:00:00 25.4 7 Sudeste 13 Sur 0 981.7 0.5 45
2017-07-29 09:00:00 22.9 3 Sudeste 5 Sur 0 981.7 0.8 51
2017-07-29 08:00:00 19.6 4 Sudeste 9 Sudeste 0 981.5 0.5 66
2017-07-29 07:00:00 18.5 4 Sudeste 6 Sudeste 0 981.2 0.1 68
2017-07-29 06:00:00 18.9 5 Sur 7 Sur 0 980.9 -0.4 67
2017-07-29 05:00:00 19.6 5 Norte 12 Noroeste 0 981 -0.7 67
2017-07-29 04:00:00 20.5 9 Noroeste 18 Noroeste 0 981.1 -0.7 66
2017-07-29 03:00:00 21.5 13 Noroeste 19 Oeste 0 981.3 0 62
2017-07-29 02:00:00 21.8 10 Noroeste 16 Oeste 0 981.7 0.5 57
2017-07-29 01:00:00 23 4 Oeste 21 Noroeste 0 981.8 1.7 46
2017-07-29 00:00:00 24 18 Noroeste 25 Noroeste 0 981.3 2.2 39
2017-07-28 23:00:00 26.2 6 Oeste 18 Noroeste 0 981.2 2.6 23
2017-07-28 22:00:00 29.3 15 Norte 32 Norte 0 980.1 1.6 20
2017-07-28 21:00:00 32.7 21 Norte 36 Noroeste 0 979.1 0.4 31
2017-07-28 20:00:00 34.7 17 Noroeste 24 Noroeste 0 978.6 -0.6 24
2017-07-28 19:00:00 35.2 15 Noroeste 22 Noroeste 0 978.5 -1.5 23
2017-07-28 18:00:00 35.8 7 Norte 23 Norte 0 978.7 -1.8 23
2017-07-28 17:00:00 36 5 Oeste 21 Noroeste 0 979.2 -2.3 23
2017-07-28 16:00:00 34.7 8 Noroeste 21 Noroeste 0 980 -1.7 24
2017-07-28 15:00:00 33.4 8 Noroeste 37 Oeste 0 980.5 -1.4 29
2017-07-28 14:00:00 31.9 7 Oeste 18 Norte 0 981.5 -0.8 34
2017-07-28 13:00:00 31 8 Oeste 15 Oeste 0 981.7 -0.7 39
2017-07-28 12:00:00 28.1 10 Noroeste 22 Oeste 0 981.9 -0.1 48
2017-07-28 11:00:00 25.9 14 Oeste 23 Noroeste 0 982.3 0.7 56
2017-07-28 10:00:00 23.8 17 Noroeste 24 Noroeste 0 982.4 1.1 64
2017-07-28 09:00:00 21.9 15 Noroeste 29 Noroeste 0 982 1 72
2017-07-28 08:00:00 20.3 18 Noroeste 25 Noroeste 0 981.6 0.7 78
2017-07-28 07:00:00 19.6 18 Noroeste 27 Noroeste 0 981.3 0.4 80
2017-07-28 06:00:00 19.9 19 Noroeste 31 Oeste 0 981 0.2 78
2017-07-28 05:00:00 20.4 24 Noroeste 35 Noroeste 0 980.9 0.2 76
2017-07-28 04:00:00 20.6 22 Noroeste 32 Noroeste 0 980.9 0.5 75
2017-07-28 03:00:00 20.8 18 Noroeste 30 Noroeste 0 980.8 0.5 74
2017-07-28 02:00:00 21.4 17 Oeste 26 Noroeste 0 980.7 1 71
2017-07-28 01:00:00 22 20 Noroeste 27 Oeste 0 980.4 1.8 67
2017-07-28 00:00:00 22.9 15 Oeste 25 Oeste 0 980.3 3 63
2017-07-27 23:00:00 24.4 20 Noroeste 26 Noroeste 0 979.7 3 58
2017-07-27 22:00:00 27.3 17 Noroeste 30 Norte 0 978.6 1.8 47
2017-07-27 21:00:00 32 18 Norte 39 Norte 0 977.3 0.1 28
2017-07-27 20:00:00 33.8 23 Norte 38 Noroeste 0 976.7 -1 26
2017-07-27 19:00:00 35 15 Noroeste 29 Noroeste 0 976.8 -1.4 20
2017-07-27 18:00:00 34.5 19 Noroeste 30 Noroeste 0 977.2 -1.6 20
2017-07-27 17:00:00 34.8 12 Noroeste 30 Noroeste 0 977.7 -1.8 19
2017-07-27 16:00:00 34.1 14 Noroeste 23 Oeste 0 978.2 -1.8 19
2017-07-27 15:00:00 33.7 9 Oeste 18 Oeste 0 978.8 -1.7 20
2017-07-27 14:00:00 31.9 8 Noroeste 19 Noroeste 0 979.5 -1.3 21
2017-07-27 13:00:00 30.8 8 Oeste 17 Oeste 0 980 -1.3 19
2017-07-27 12:00:00 28.6 9 Noroeste 18 Oeste 0 980.5 -1 23
2017-07-27 11:00:00 26.2 10 Oeste 18 Oeste 0 980.8 -0.2 42
2017-07-27 10:00:00 22.7 7 Oeste 12 Oeste 0 981.3 0.4 54
2017-07-27 09:00:00 20 8 Oeste 11 Oeste 0 981.5 0.7 66
2017-07-27 08:00:00 17.5 2 Sur 8 Norte 0 981 0.4 75
2017-07-27 07:00:00 16.2 5 Noroeste 14 Oeste 0 980.9 0.1 82
2017-07-27 06:00:00 17.7 10 Oeste 13 Oeste 0 980.8 0.1 78
2017-07-27 05:00:00 18 6 Sudoeste 14 Noroeste 0 980.6 -0.4 73
2017-07-27 04:00:00 19 9 Noroeste 19 Noroeste 0 980.8 -0.4 71
2017-07-27 03:00:00 19.1 12 Noroeste 26 Noroeste 0 980.7 -0.4 71
2017-07-27 02:00:00 20.1 17 Noroeste 23 Noroeste 0 981 -0.1 68
2017-07-27 01:00:00 20.1 16 Noroeste 21 Noroeste 0 981.2 0.8 67
2017-07-27 00:00:00 22.1 15 Oeste 19 Oeste 0 981.1 1.2 60
2017-07-26 23:00:00 22.7 13 Noroeste 19 Noroeste 0 981.1 1.7 54
2017-07-26 22:00:00 24.7 13 Noroeste 29 Norte 0 980.4 0.9 42
2017-07-26 21:00:00 27.5 24 Noroeste 42 Norte 0 979.9 0.3 34
2017-07-26 20:00:00 28.9 29 Norte 50 Norte 0 979.4 -0.4 32
2017-07-26 19:00:00 29.3 31 Noroeste 46 Noroeste 0 979.5 -0.5 34
2017-07-26 18:00:00 29.5 32 Noroeste 49 Noroeste 0 979.6 -1 32
2017-07-26 17:00:00 29.5 33 Noroeste 47 Norte 0 979.8 -1.3 33
2017-07-26 16:00:00 29.3 28 Noroeste 46 Noroeste 0 980 -1.5 34
2017-07-26 15:00:00 28.2 28 Noroeste 45 Noroeste 0 980.6 -1.4 35
2017-07-26 14:00:00 26.1 31 Noroeste 43 Noroeste 0 981.1 -1 40
2017-07-26 13:00:00 25 28 Noroeste 44 Noroeste 0 981.5 -0.9 41
2017-07-26 12:00:00 22.9 29 Noroeste 48 Noroeste 0 982 -0.4 44
2017-07-26 11:00:00 21.6 31 Noroeste 45 Noroeste 0 982.1 -0.3 50
2017-07-26 10:00:00 19.4 31 Noroeste 47 Noroeste 0 982.4 0.3 58
2017-07-26 09:00:00 18 27 Noroeste 40 Noroeste 0 982.4 0 62
2017-07-26 08:00:00 15.7 19 Oeste 40 Noroeste 0 982.4 0 71
2017-07-26 07:00:00 15.2 29 Oeste 39 Noroeste 0 982.1 -0.5 72
2017-07-26 06:00:00 15.5 23 Oeste 39 Oeste 0 982.4 -0.3 70
2017-07-26 05:00:00 15.5 23 Noroeste 42 Noroeste 0 982.4 -0.7 69
2017-07-26 04:00:00 15.9 32 Noroeste 49 Noroeste 0 982.6 -0.7 67
2017-07-26 03:00:00 16.6 34 Oeste 43 Oeste 0 982.7 -0.4 65
2017-07-26 02:00:00 16.9 33 Oeste 52 Oeste 0 983.1 -0.6 63
2017-07-26 01:00:00 16.9 33 Noroeste 55 Noroeste 0 983.3 0.2 66
2017-07-26 00:00:00 17.5 41 Noroeste 53 Noroeste 0 983.1 0.6 65
2017-07-25 23:00:00 18 31 Noroeste 53 Noroeste 0 983.7 1.4 63
2017-07-25 22:00:00 18.7 37 Noroeste 58 Noroeste 0 983.1 1 59
2017-07-25 21:00:00 20.5 42 Noroeste 59 Noroeste 0 982.5 0.1 51
2017-07-25 20:00:00 21.9 44 Noroeste 64 Noroeste 0 982.3 -0.2 46
2017-07-25 19:00:00 22.8 37 Noroeste 64 Noroeste 0 982.1 -0.9 44
2017-07-25 18:00:00 22.7 42 Noroeste 66 Noroeste 0 982.4 -1.1 41
2017-07-25 17:00:00 23.4 46 Noroeste 66 Noroeste 0 982.5 -1.6 42
2017-07-25 16:00:00 23.2 44 Noroeste 63 Noroeste 0 983 -1 43
2017-07-25 15:00:00 23.1 44 Noroeste 66 Noroeste 0 983.5 -0.8 45
2017-07-25 14:00:00 21.9 44 Noroeste 63 Noroeste 0 984.1 -0.3 52
2017-07-25 13:00:00 22.2 42 Noroeste 62 Noroeste 0 984 -0.7 51
2017-07-25 12:00:00 21.6 42 Noroeste 62 Noroeste 0 984.3 -0.6 52
2017-07-25 11:00:00 20.2 45 Noroeste 61 Noroeste 0 984.4 -0.5 56
2017-07-25 10:00:00 19.2 41 Noroeste 57 Noroeste 0 984.7 -0.1 58
2017-07-25 09:00:00 18 30 Noroeste 47 Noroeste 0 984.9 0 60
2017-07-25 08:00:00 17.3 22 Oeste 46 Noroeste 0 984.9 -0.2 70
2017-07-25 07:00:00 16.7 33 Noroeste 50 Noroeste 0 984.8 -0.6 72
2017-07-25 06:00:00 16.8 30 Noroeste 50 Noroeste 0 984.9 -0.9 72
2017-07-25 05:00:00 17 34 Noroeste 49 Noroeste 0 985.1 -1.4 73
2017-07-25 04:00:00 17.3 36 Noroeste 57 Noroeste 0 985.4 -1.3 74
2017-07-25 03:00:00 17.7 32 Noroeste 45 Noroeste 0 985.8 -1.2 71
2017-07-25 02:00:00 17.4 24 Noroeste 38 Noroeste 0 986.5 -0.5 73
2017-07-25 01:00:00 17.6 31 Noroeste 46 Noroeste 0 986.7 0.3 74
2017-07-25 00:00:00 17.9 27 Noroeste 38 Noroeste 0 987 0.9 74
2017-07-24 23:00:00 18.2 27 Noroeste 50 Noroeste 0 987 1.5 74
2017-07-24 22:00:00 19.3 30 Noroeste 46 Noroeste 0 986.4 1.2 68
2017-07-24 21:00:00 21.2 32 Noroeste 52 Noroeste 0 986.1 1.1 61
2017-07-24 20:00:00 22.9 36 Noroeste 55 Noroeste 0 985.5 1 54
2017-07-24 19:00:00 23.4 39 Noroeste 59 Noroeste 0 985.2 0.6 52
2017-07-24 18:00:00 25.1 38 Noroeste 60 Noroeste 0 985 0.7 46
2017-07-24 17:00:00 26.1 37 Noroeste 59 Noroeste 0 984.5 -0.4 41
2017-07-24 16:00:00 26 39 Noroeste 62 Noroeste 0 984.6 -0.8 42
2017-07-24 15:00:00 26.2 40 Noroeste 60 Noroeste 0 984.3 -1 40
2017-07-24 14:00:00 25.7 41 Noroeste 58 Noroeste 0 984.9 -0.5 39
2017-07-24 13:00:00 24.8 35 Noroeste 57 Noroeste 0 985.4 0.2 46
2017-07-24 12:00:00 24.9 34 Noroeste 51 Noroeste 0 985.3 0.4 46
2017-07-24 11:00:00 22.8 26 Noroeste 44 Oeste 0 985.4 0.6 58
2017-07-24 10:00:00 21.8 26 Noroeste 41 Noroeste 0 985.2 0.5 64
2017-07-24 09:00:00 20.8 12 Noroeste 20 Noroeste 0 984.9 0.3 68
2017-07-24 08:00:00 20 14 Noroeste 18 Noroeste 0 984.8 0 69
2017-07-24 07:00:00 19.2 9 Noroeste 15 Noroeste 0 984.7 -0.2 72
2017-07-24 06:00:00 19 9 Oeste 14 Noroeste 0 984.6 -0.7 73
2017-07-24 05:00:00 19.4 10 Oeste 17 Oeste 0 984.8 -0.9 70
2017-07-24 04:00:00 18.4 13 Noroeste 17 Noroeste 0 984.9 -0.8 72
2017-07-24 03:00:00 18.1 11 Oeste 23 Oeste 0 985.3 -0.2 71
2017-07-24 02:00:00 19.1 17 Noroeste 26 Oeste 0 985.7 0.6 68
2017-07-24 01:00:00 19.4 15 Oeste 27 Oeste 0 985.7 1.7 66
2017-07-24 00:00:00 20 20 Oeste 28 Noroeste 0 985.5 3.1 61
2017-07-23 23:00:00 21.1 17 Noroeste 31 Noroeste 0 985.1 3 52
2017-07-23 22:00:00 22.8 21 Noroeste 42 Noroeste 0 984 2.4 47
2017-07-23 21:00:00 25.1 34 Noroeste 45 Noroeste 0 982.4 0.8 39
2017-07-23 20:00:00 26.9 37 Noroeste 50 Noroeste 0 982.1 0 33
2017-07-23 19:00:00 28.8 33 Noroeste 42 Noroeste 0 981.6 -1.2 32
2017-07-23 18:00:00 29.8 26 Noroeste 40 Noroeste 0 981.6 -1.9 32
2017-07-23 17:00:00 30.3 11 Noroeste 30 Noroeste 0 982.1 -2.2 31
2017-07-23 16:00:00 30.2 10 Oeste 23 Noroeste 0 982.8 -1.9 33
2017-07-23 15:00:00 28.7 16 Noroeste 30 Noroeste 0 983.5 -1.5 37
2017-07-23 14:00:00 27.9 11 Noroeste 32 Noroeste 0 984.3 -0.9 40
2017-07-23 13:00:00 25.6 16 Noroeste 33 Oeste 0 984.7 -0.6 44
2017-07-23 12:00:00 23.9 18 Oeste 31 Oeste 0 985 -0.5 48
2017-07-23 11:00:00 22.2 24 Noroeste 32 Oeste 0 985.2 -0.1 54
2017-07-23 10:00:00 20.3 22 Noroeste 30 Noroeste 0 985.3 0.1 61
2017-07-23 09:00:00 18.6 22 Noroeste 35 Noroeste 0 985.5 0.6 68
2017-07-23 08:00:00 17.3 19 Noroeste 32 Oeste 0 985.3 1 74
2017-07-23 07:00:00 16.4 18 Oeste 30 Oeste 0 985.2 1 77
2017-07-23 06:00:00 16.5 20 Noroeste 28 Noroeste 0 984.9 0.5 77
2017-07-23 05:00:00 16.7 20 Noroeste 35 Noroeste 0 984.3 0.3 76
2017-07-23 04:00:00 16.9 23 Noroeste 34 Noroeste 0 984.2 0.4 76
2017-07-23 03:00:00 17.5 23 Noroeste 36 Noroeste 0 984.4 1.4 73
2017-07-23 02:00:00 18.3 25 Noroeste 35 Noroeste 0 984 1.9 74
2017-07-23 01:00:00 19 24 Noroeste 35 Oeste 0 983.8 3.3 71
2017-07-23 00:00:00 19.6 24 Noroeste 35 Noroeste 0 983 4.2 70
2017-07-22 23:00:00 20.5 24 Noroeste 36 Noroeste 0 982.1 4.3 66
2017-07-22 22:00:00 22.3 28 Noroeste 39 Noroeste 0 980.5 2.9 59
2017-07-22 21:00:00 27.5 29 Noroeste 39 Noroeste 0 978.8 1.3 43
2017-07-22 20:00:00 32.9 9 Noroeste 24 Sudoeste 0 977.8 0 26
2017-07-22 19:00:00 33.7 11 Oeste 22 Sudoeste 0 977.6 -0.7 25
2017-07-22 18:00:00 33 6 Nordeste 18 Oeste 0 977.5 -1.4 27
2017-07-22 17:00:00 32.8 9 Sur 17 Sur 0 977.8 -1.6 28
2017-07-22 16:00:00 31.3 10 Este 22 Este 0 978.3 -1.4 36
2017-07-22 15:00:00 31.5 6 Sur 19 Este 0 978.9 -1 36
2017-07-22 14:00:00 29.3 5 Noroeste 13 Este 0 979.4 -0.6 42
2017-07-22 13:00:00 28.9 5 Este 13 Este 0 979.7 -0.2 42
2017-07-22 12:00:00 26.2 6 Oeste 13 Oeste 0 979.9 0.2 40
2017-07-22 11:00:00 25.2 5 Sudoeste 11 Sudoeste 0 980 0.5 42
2017-07-22 10:00:00 23.9 3 Sudeste 12 Sur 0 979.9 0.6 41
2017-07-22 09:00:00 21.7 2 Noroeste 4 Este 0 979.7 0.6 49
2017-07-22 08:00:00 18.9 3 Oeste 8 Oeste 0 979.5 0.8 60
2017-07-22 07:00:00 17.6 3 Oeste 8 Oeste 0 979.3 0.6 65
2017-07-22 06:00:00 17.3 5 Noroeste 17 Noroeste 0 979.1 0.4 68
2017-07-22 05:00:00 18.1 12 Noroeste -- -- 0 978.7 0 65
2017-07-22 04:00:00 18.1 9 Noroeste 18 Noroeste 0 978.7 0.1 65
2017-07-22 03:00:00 18 15 Noroeste 21 Noroeste 0 978.7 0.2 69
2017-07-22 02:00:00 18.9 14 Oeste 26 Oeste 0 978.7 1.1 67
2017-07-22 01:00:00 20.4 16 Oeste 21 Oeste 0 978.6 2.3 61
2017-07-22 00:00:00 21.7 5 Sudoeste 21 Sudeste 0 978.5 3.1 76
2017-07-21 23:00:00 21.9 16 Este 30 Este 0 977.6 2.5 77
2017-07-21 22:00:00 24.3 12 Este 28 Este 0 976.3 1.4 59
2017-07-21 21:00:00 27.2 21 Este 27 Este 0 975.4 0.3 53
2017-07-21 20:00:00 30 10 Este 22 Este 0 975.1 -0.2 41
2017-07-21 19:00:00 29.9 11 Este 27 Este 0 974.9 -0.7 41
2017-07-21 18:00:00 29.6 15 Este 32 Este 0 975.1 -0.8 41
2017-07-21 17:00:00 28.7 24 Este 34 Este 0 975.3 -1.3 43
2017-07-21 16:00:00 30.3 19 Este 32 Este 0 975.6 -1.7 37
2017-07-21 15:00:00 29.7 13 Sudeste 32 Sudeste 0 975.9 -1.9 37
2017-07-21 14:00:00 28 14 Este 25 Este 0 976.6 -1.4 40
2017-07-21 13:00:00 26 11 Este 20 Este 0 977.3 -0.9 44
2017-07-21 12:00:00 26 5 Sudeste 16 Noroeste 0 977.8 -0.3 44
2017-07-21 11:00:00 22.9 5 Noroeste 15 Noroeste 0 978 0 53
2017-07-21 10:00:00 20.4 8 Noroeste 17 Oeste 0 978.2 0.4 61
2017-07-21 09:00:00 18.5 11 Noroeste 21 Noroeste 0 978.1 0.3 68
2017-07-21 08:00:00 17.5 10 Noroeste 18 Oeste 0 978 0.1 72
2017-07-21 07:00:00 17.2 10 Oeste 23 Noroeste 0 977.8 -0.4 73
2017-07-21 06:00:00 17.2 17 Noroeste 26 Oeste 0 977.8 -0.9 73
2017-07-21 05:00:00 17 21 Noroeste 32 Noroeste 0 977.9 -0.8 73
2017-07-21 04:00:00 17 22 Oeste 32 Oeste 0 978.2 -0.9 73
2017-07-21 03:00:00 17.1 24 Oeste 36 Noroeste 0 978.7 -0.6 72
2017-07-21 02:00:00 17.4 26 Oeste 35 Oeste 0 978.7 -0.5 70
2017-07-21 01:00:00 17.8 21 Oeste 35 Noroeste 0 979.1 0.7 70
2017-07-21 00:00:00 17.8 27 Oeste 41 Noroeste 0 979.3 1.4 70
2017-07-20 23:00:00 18.2 29 Noroeste 46 Noroeste 0 979.2 1.8 68
2017-07-20 22:00:00 19.1 34 Noroeste 51 Noroeste 0 978.4 1.4 65
2017-07-20 21:00:00 21.3 42 Noroeste 55 Noroeste 0 977.9 0.7 58
2017-07-20 20:00:00 24 38 Noroeste 50 Noroeste 0 977.4 -0.1 51
2017-07-20 19:00:00 26.3 36 Noroeste 51 Oeste 0 977 -1 45
2017-07-20 18:00:00 28 33 Noroeste 47 Oeste 0 977.2 -1.6 39
2017-07-20 17:00:00 28.6 30 Oeste 41 Noroeste 0 977.5 -1.8 36
2017-07-20 16:00:00 28.3 25 Noroeste 44 Oeste 0 978 -1.7 38
2017-07-20 15:00:00 27.7 27 Oeste 40 Oeste 0 978.8 -1.4 39
2017-07-20 14:00:00 26.9 28 Noroeste 45 Oeste 0 979.3 -1.1 42
2017-07-20 13:00:00 26.3 19 Oeste 44 Noroeste 0 979.7 -0.8 45
2017-07-20 12:00:00 24.5 21 Noroeste 34 Noroeste 0 980.2 -0.3 52
2017-07-20 11:00:00 23.2 22 Noroeste 36 Noroeste 0 980.4 0.2 57
2017-07-20 10:00:00 21.4 26 Noroeste 38 Noroeste 0 980.5 0.6 63
2017-07-20 09:00:00 19.8 26 Noroeste 37 Noroeste 0 980.5 0.9 70
2017-07-20 08:00:00 19 27 Noroeste 37 Noroeste 0 980.2 0.7 74
2017-07-20 07:00:00 18.4 24 Oeste 32 Oeste 0 979.9 0.5 77
2017-07-20 06:00:00 18.4 19 Noroeste 31 Noroeste 0 979.6 0.3 79
2017-07-20 05:00:00 18.7 20 Noroeste 30 Noroeste 0 979.5 0.2 75
2017-07-20 04:00:00 19 18 Noroeste 27 Noroeste 0 979.4 0.4 73
2017-07-20 03:00:00 19.4 18 Noroeste 29 Noroeste 0 979.3 0.6 72
2017-07-20 02:00:00 19.9 19 Noroeste 30 Noroeste 0 979.3 1.3 70
2017-07-20 01:00:00 20.6 22 Noroeste 33 Noroeste 0 979 2.1 68
2017-07-20 00:00:00 21.6 16 Oeste 30 Noroeste 0 978.7 3.2 71
2017-07-19 23:00:00 23.5 24 Norte 38 Norte 0 978 4.5 64
2017-07-19 22:00:00 24.2 30 Norte 45 Norte 0 976.9 3.2 64
2017-07-19 21:00:00 29 25 Norte 38 Norte 0 975.5 1.5 44
2017-07-19 20:00:00 32.2 27 Este 42 Este 0 973.5 -0.9 34
2017-07-19 19:00:00 36.3 20 Sur 33 Sur 0 973.7 -1.4 18
2017-07-19 18:00:00 37.4 16 Sudeste 30 Sudeste 0 974 -1.4 16
2017-07-19 17:00:00 36.8 14 Sudeste 33 Este 0 974.4 -1.5 19
2017-07-19 16:00:00 35.1 14 Este 38 Este 0 975.1 -1.4 23
2017-07-19 15:00:00 35.2 26 Sudeste 41 Este 0 975.4 -1.5 24
2017-07-19 14:00:00 33.8 27 Este 47 Este 0 975.9 -1.7 27
2017-07-19 13:00:00 31.7 29 Este 46 Este 0 976.5 -1.7 33
2017-07-19 12:00:00 29.1 33 Este 45 Este 0 976.9 -0.7 46
2017-07-19 11:00:00 26.5 32 Este 42 Este 0 977.6 0.3 55
2017-07-19 10:00:00 24.6 23 Este 40 Sudeste 0 978.2 1.3 65
2017-07-19 09:00:00 23.5 31 Sudeste 45 Este 0 977.6 0.1 60
2017-07-19 08:00:00 22 22 Sudeste 36 Sudeste 0 977.3 -0.2 68
2017-07-19 07:00:00 21.7 27 Este 41 Este 0 976.9 -0.6 69
2017-07-19 06:00:00 21.7 13 Sudeste 23 Este 0 977.5 0.9 69
2017-07-19 05:00:00 23.1 13 Este 29 Sudeste 0 977.5 1.3 58
2017-07-19 04:00:00 24.2 22 Sudeste 35 Sudeste 0 977.5 1.3 51
2017-07-19 03:00:00 24.1 16 Sudeste 40 Este 0 976.6 -1.2 54
2017-07-19 02:00:00 23.3 28 Este 59 Este 0 976.2 0.6 59
2017-07-19 01:00:00 24.7 40 Este 61 Este 0 976.2 0.8 53
2017-07-19 00:00:00 26.3 37 Este 60 Este 0 977.8 3.1 55